createdAt,value
2023-03-19T00:01:39.708Z,15.80
2023-03-19T00:04:13.549Z,16.43
2023-03-19T00:06:48.192Z,15.43
2023-03-19T00:09:23.261Z,15.83
2023-03-19T00:11:57.284Z,16.17
2023-03-19T00:14:31.358Z,17.27
2023-03-19T00:17:04.795Z,15.10
2023-03-19T00:19:38.172Z,14.93
2023-03-19T00:22:12.151Z,15.50
2023-03-19T00:24:46.230Z,16.60
2023-03-19T00:27:20.245Z,17.13
2023-03-19T00:29:54.186Z,15.33
2023-03-19T00:32:28.814Z,16.53
2023-03-19T00:35:02.310Z,15.70
2023-03-19T00:37:36.576Z,16.50
2023-03-19T00:40:16.998Z,16.03
2023-03-19T00:42:51.608Z,16.93
2023-03-19T00:45:25.851Z,17.03
2023-03-19T00:47:59.228Z,16.17
2023-03-19T00:50:33.427Z,17.33
2023-03-19T00:53:06.392Z,17.53
2023-03-19T00:55:40.527Z,16.93
2023-03-19T00:58:14.088Z,16.23
2023-03-19T01:00:48.715Z,17.57
2023-03-19T01:03:22.648Z,16.90
2023-03-19T01:05:56.449Z,17.07
2023-03-19T01:08:30.051Z,17.17
2023-03-19T01:11:12.002Z,16.17
2023-03-19T01:13:46.833Z,17.47
2023-03-19T01:16:20.878Z,18.60
2023-03-19T01:18:54.485Z,18.70
2023-03-19T01:21:31.142Z,19.47
2023-03-19T01:24:05.028Z,21.13
2023-03-19T01:26:39.065Z,19.70
2023-03-19T01:29:28.004Z,20.00
2023-03-19T01:32:03.576Z,20.30
2023-03-19T01:37:23.277Z,21.23
2023-03-19T01:39:59.116Z,21.03
2023-03-19T01:42:32.516Z,20.20
2023-03-19T01:45:39.445Z,18.37
2023-03-19T01:48:39.347Z,18.63
2023-03-19T01:51:18.581Z,20.07
2023-03-19T01:54:14.869Z,20.47
2023-03-19T01:57:04.747Z,18.80
2023-03-19T02:00:01.870Z,19.55
2023-03-19T02:02:36.615Z,19.47
2023-03-19T02:05:26.093Z,20.43
2023-03-19T02:08:07.214Z,19.17
2023-03-19T02:10:42.482Z,19.33
2023-03-19T02:13:16.857Z,18.90
2023-03-19T02:15:51.260Z,21.23
2023-03-19T02:18:26.077Z,19.13
2023-03-19T02:21:07.109Z,18.93
2023-03-19T02:23:47.095Z,20.30
2023-03-19T02:26:24.943Z,20.23
2023-03-19T02:29:06.398Z,20.13
2023-03-19T02:31:41.686Z,22.67
2023-03-19T02:34:37.977Z,20.43
2023-03-19T02:37:17.821Z,19.40
2023-03-19T02:39:57.178Z,20.43
2023-03-19T02:42:31.934Z,19.70
2023-03-19T02:45:06.231Z,18.43
2023-03-19T02:47:40.141Z,19.50
2023-03-19T02:50:14.859Z,17.87
2023-03-19T02:52:48.984Z,19.10
2023-03-19T02:55:23.766Z,19.00
2023-03-19T02:57:57.892Z,20.20
2023-03-19T03:00:33.579Z,18.93
2023-03-19T03:03:09.309Z,18.70
2023-03-19T03:05:42.451Z,20.00
2023-03-19T03:08:15.942Z,18.73
2023-03-19T03:10:49.887Z,19.07
2023-03-19T03:13:23.308Z,19.90
2023-03-19T03:15:57.158Z,19.03
2023-03-19T03:18:30.867Z,18.43
2023-03-19T03:21:07.724Z,18.53
2023-03-19T03:23:41.418Z,19.00
2023-03-19T03:26:16.352Z,18.37
2023-03-19T03:28:50.393Z,19.13
2023-03-19T03:31:25.020Z,18.97
2023-03-19T03:33:59.403Z,18.80
2023-03-19T03:36:34.061Z,17.90
2023-03-19T03:39:07.630Z,19.87
2023-03-19T03:41:41.857Z,17.87
2023-03-19T03:44:15.912Z,18.37
2023-03-19T03:46:51.094Z,19.27
2023-03-19T03:49:26.023Z,18.73
2023-03-19T03:51:59.799Z,19.50
2023-03-19T03:54:35.607Z,20.17
2023-03-19T03:57:10.513Z,19.07
2023-03-19T03:59:44.853Z,20.50
2023-03-19T04:02:19.252Z,19.80
2023-03-19T04:04:53.247Z,19.37
2023-03-19T04:07:28.281Z,19.70
2023-03-19T04:10:03.925Z,21.93
2023-03-19T04:12:38.283Z,18.67
2023-03-19T04:15:15.687Z,19.95
2023-03-19T04:17:51.749Z,19.77
2023-03-19T04:20:25.707Z,18.97
2023-03-19T04:22:59.508Z,18.63
2023-03-19T04:25:32.825Z,18.13
2023-03-19T04:28:07.081Z,19.23
2023-03-19T04:30:41.659Z,18.87
2023-03-19T04:33:16.010Z,18.60
2023-03-19T04:35:50.061Z,20.30
2023-03-19T04:38:23.289Z,20.23
2023-03-19T04:40:57.731Z,20.57
2023-03-19T04:43:31.979Z,20.23
2023-03-19T04:46:07.075Z,19.37
2023-03-19T04:48:42.047Z,19.43
2023-03-19T04:51:17.283Z,19.93
2023-03-19T04:53:51.334Z,20.03
2023-03-19T04:56:24.898Z,20.23
2023-03-19T04:58:59.518Z,21.00
2023-03-19T05:01:33.683Z,21.10
2023-03-19T05:04:11.541Z,21.47
2023-03-19T05:06:44.826Z,22.73
2023-03-19T05:09:20.255Z,23.67
2023-03-19T05:11:53.861Z,23.97
2023-03-19T05:14:29.097Z,27.20
2023-03-19T05:17:11.523Z,26.90
2023-03-19T05:19:59.022Z,26.37
2023-03-19T05:22:33.048Z,26.20
2023-03-19T05:25:08.339Z,25.43
2023-03-19T05:27:41.049Z,26.60
2023-03-19T05:30:19.278Z,24.85
2023-03-19T05:32:52.192Z,25.00
2023-03-19T05:35:46.443Z,24.20
2023-03-19T05:38:24.944Z,24.85
2023-03-19T05:41:06.838Z,24.43
2023-03-19T05:43:47.171Z,23.30
2023-03-19T05:46:27.859Z,24.55
2023-03-19T05:49:01.452Z,25.70
2023-03-19T05:51:35.471Z,26.70
2023-03-19T05:54:08.655Z,26.00
2023-03-19T05:56:55.862Z,24.10
2023-03-19T05:59:52.510Z,24.00
2023-03-19T06:02:47.512Z,26.15
2023-03-19T06:05:42.714Z,25.80
2023-03-19T06:08:23.651Z,26.30
2023-03-19T06:11:16.952Z,26.68
2023-03-19T06:13:52.589Z,25.50
2023-03-19T06:16:26.439Z,27.65
2023-03-19T06:19:00.604Z,27.10
2023-03-19T06:21:34.266Z,26.25
2023-03-19T06:24:08.485Z,27.50
2023-03-19T06:26:42.558Z,26.47
2023-03-19T06:29:20.736Z,27.40
2023-03-19T06:31:57.882Z,27.20
2023-03-19T06:34:57.837Z,27.90
2023-03-19T06:37:31.029Z,28.25
2023-03-19T06:40:05.452Z,27.95
2023-03-19T06:42:37.809Z,28.53
2023-03-19T06:45:12.852Z,27.07
2023-03-19T06:47:45.838Z,29.50
2023-03-19T06:50:19.034Z,28.20
2023-03-19T06:52:52.252Z,26.50
2023-03-19T06:55:25.206Z,28.23
2023-03-19T06:57:58.060Z,27.37
2023-03-19T07:00:31.218Z,30.10
2023-03-19T07:03:04.568Z,30.52
2023-03-19T07:05:37.974Z,30.20
2023-03-19T07:08:12.188Z,29.75
2023-03-19T07:10:44.757Z,27.87
2023-03-19T07:13:17.530Z,27.50
2023-03-19T07:15:50.722Z,27.63
2023-03-19T07:18:23.292Z,27.85
2023-03-19T07:20:56.097Z,26.77
2023-03-19T07:23:28.211Z,25.77
2023-03-19T07:26:00.845Z,26.37
2023-03-19T07:28:33.604Z,26.60
2023-03-19T07:31:06.999Z,27.30
2023-03-19T07:33:40.195Z,25.32
2023-03-19T07:36:13.576Z,25.82
2023-03-19T07:38:46.150Z,24.00
2023-03-19T07:41:18.520Z,23.50
2023-03-19T07:43:51.505Z,24.80
2023-03-19T07:46:24.337Z,23.92
2023-03-19T07:48:57.077Z,23.15
2023-03-19T07:51:30.064Z,24.95
2023-03-19T07:54:02.544Z,23.73
2023-03-19T07:56:35.204Z,25.30
2023-03-19T07:59:07.779Z,26.17
2023-03-19T08:01:40.561Z,24.40
2023-03-19T08:04:13.167Z,23.22
2023-03-19T08:06:45.710Z,24.50
2023-03-19T08:09:18.571Z,24.77
2023-03-19T08:11:51.067Z,23.87
2023-03-19T08:14:24.464Z,24.27
2023-03-19T08:16:57.477Z,25.35
2023-03-19T08:19:30.022Z,24.80
2023-03-19T08:22:02.600Z,23.83
2023-03-19T08:24:35.176Z,24.92
2023-03-19T08:27:08.361Z,21.70
2023-03-19T08:29:42.371Z,23.12
2023-03-19T08:32:15.980Z,20.10
2023-03-19T08:34:49.765Z,21.65
2023-03-19T08:37:22.357Z,22.65
2023-03-19T08:39:55.129Z,22.45
2023-03-19T08:42:27.703Z,21.40
2023-03-19T08:45:00.286Z,21.70
2023-03-19T08:47:32.355Z,21.35
2023-03-19T08:50:05.040Z,22.07
2023-03-19T08:52:37.425Z,20.65
2023-03-19T08:55:10.791Z,20.82
2023-03-19T08:57:43.362Z,22.48
2023-03-19T09:00:17.679Z,23.27
2023-03-19T09:02:49.683Z,21.73
2023-03-19T09:05:24.783Z,20.57
2023-03-19T09:07:57.147Z,21.97
2023-03-19T09:10:29.718Z,22.30
2023-03-19T09:13:02.293Z,20.12
2023-03-19T09:15:35.531Z,21.25
2023-03-19T09:18:08.057Z,19.50
2023-03-19T09:20:41.341Z,19.87
2023-03-19T09:23:14.772Z,21.97
2023-03-19T09:25:48.861Z,19.60
2023-03-19T09:28:24.617Z,20.07
2023-03-19T09:30:58.344Z,20.53
2023-03-19T09:33:31.409Z,20.87
2023-03-19T09:36:06.149Z,20.70
2023-03-19T09:38:39.655Z,19.87
2023-03-19T09:41:22.549Z,19.95
2023-03-19T09:44:07.539Z,21.43
2023-03-19T09:46:46.682Z,19.67
2023-03-19T09:49:27.699Z,18.40
2023-03-19T09:52:09.543Z,17.50
2023-03-19T09:54:48.459Z,17.83
2023-03-19T09:57:22.861Z,17.75
2023-03-19T09:59:56.145Z,18.30
2023-03-19T10:02:44.515Z,16.07
2023-03-19T10:05:28.937Z,17.00
2023-03-19T10:08:28.412Z,15.63
2023-03-19T10:11:19.048Z,15.43
2023-03-19T10:14:01.224Z,15.50
2023-03-19T10:19:08.088Z,14.38
2023-03-19T10:21:45.951Z,13.40
2023-03-19T10:24:23.943Z,12.40
2023-03-19T10:27:03.061Z,13.57
2023-03-19T10:29:38.013Z,12.90
2023-03-19T10:32:19.113Z,13.13
2023-03-19T10:34:54.101Z,12.77
2023-03-19T10:37:29.145Z,12.73
2023-03-19T10:40:04.051Z,12.13
2023-03-19T10:42:48.939Z,12.47
2023-03-19T10:45:30.646Z,11.53
2023-03-19T10:48:06.322Z,12.10
2023-03-19T10:50:48.003Z,9.30
2023-03-19T10:53:33.370Z,9.08
2023-03-19T10:56:18.103Z,8.80
2023-03-19T10:59:05.903Z,8.77
2023-03-19T11:01:42.041Z,9.93
2023-03-19T11:04:18.712Z,9.50
2023-03-19T11:06:54.692Z,9.13
2023-03-19T11:09:35.383Z,8.23
2023-03-19T11:12:20.905Z,8.10
2023-03-19T11:14:55.775Z,9.30
2023-03-19T11:17:38.154Z,9.53
2023-03-19T11:20:28.675Z,8.90
2023-03-19T11:23:04.353Z,8.47
2023-03-19T11:25:41.705Z,9.03
2023-03-19T11:28:19.167Z,7.93
2023-03-19T11:31:03.988Z,7.87
2023-03-19T11:33:57.734Z,8.10
2023-03-19T11:36:36.383Z,9.47
2023-03-19T11:39:27.795Z,8.00
2023-03-19T11:42:24.124Z,8.43
2023-03-19T11:45:09.096Z,9.93
2023-03-19T11:47:51.426Z,9.27
2023-03-19T11:50:31.869Z,9.90
2023-03-19T11:53:23.094Z,9.50
2023-03-19T11:56:04.144Z,9.37
2023-03-19T11:59:10.920Z,9.80
2023-03-19T12:02:03.436Z,8.40
2023-03-19T12:05:02.466Z,8.53
2023-03-19T12:07:46.020Z,9.07
2023-03-19T12:10:39.869Z,8.47
2023-03-19T12:13:28.422Z,8.23
2023-03-19T12:16:11.517Z,9.13
2023-03-19T12:19:14.804Z,7.57
2023-03-19T12:21:58.974Z,8.07
2023-03-19T12:24:43.440Z,8.90
2023-03-19T12:27:30.764Z,8.17
2023-03-19T12:30:14.081Z,6.63
2023-03-19T12:33:05.498Z,7.23
2023-03-19T12:35:41.078Z,6.87
2023-03-19T12:38:19.534Z,7.30
2023-03-19T12:40:58.920Z,7.13
2023-03-19T12:43:38.438Z,8.00
2023-03-19T12:46:17.938Z,7.73
2023-03-19T12:48:55.927Z,8.83
2023-03-19T12:51:34.440Z,6.60
2023-03-19T12:54:13.309Z,6.33
2023-03-19T12:56:55.809Z,7.53
2023-03-19T12:59:36.697Z,6.07
2023-03-19T13:02:20.260Z,6.55
2023-03-19T13:04:58.187Z,6.90
2023-03-19T13:07:37.974Z,6.60
2023-03-19T13:10:16.906Z,6.07
2023-03-19T13:12:51.904Z,6.27
2023-03-19T13:15:32.907Z,6.83
2023-03-19T13:18:31.514Z,6.83
2023-03-19T13:21:19.975Z,8.20
2023-03-19T13:24:04.372Z,7.10
2023-03-19T13:26:40.072Z,5.97
2023-03-19T13:29:21.608Z,5.73
2023-03-19T13:32:01.637Z,5.55
2023-03-19T13:34:37.081Z,6.37
2023-03-19T13:37:15.200Z,5.80
2023-03-19T13:39:50.145Z,5.50
2023-03-19T13:42:43.929Z,6.33
2023-03-19T13:45:36.001Z,6.90
2023-03-19T13:48:39.345Z,6.33
2023-03-19T13:51:30.082Z,6.47
2023-03-19T13:54:18.411Z,6.07
2023-03-19T13:57:18.902Z,6.17
2023-03-19T13:59:53.464Z,7.17
2023-03-19T14:02:49.104Z,7.53
2023-03-19T14:05:23.899Z,6.80
2023-03-19T14:07:59.014Z,7.47
2023-03-19T14:10:33.306Z,6.90
2023-03-19T14:13:19.547Z,6.97
2023-03-19T14:15:54.760Z,7.10
2023-03-19T14:18:30.984Z,7.10
2023-03-19T14:21:08.860Z,6.70
2023-03-19T14:23:57.793Z,6.93
2023-03-19T14:26:32.535Z,6.57
2023-03-19T14:29:08.650Z,5.90
2023-03-19T14:31:49.017Z,6.50
2023-03-19T14:34:29.171Z,6.37
2023-03-19T14:37:10.080Z,7.30
2023-03-19T14:39:45.356Z,7.80
2023-03-19T14:42:24.003Z,10.00
2023-03-19T14:45:30.878Z,8.60
2023-03-19T14:48:41.278Z,6.97
2023-03-19T14:51:32.092Z,8.03
2023-03-19T14:54:14.225Z,9.50
2023-03-19T14:59:22.190Z,7.77
2023-03-19T15:01:56.961Z,5.93
2023-03-19T15:04:30.567Z,8.07
2023-03-19T15:07:04.699Z,6.97
2023-03-19T15:09:38.349Z,6.50
2023-03-19T15:12:40.847Z,6.03
2023-03-19T15:15:38.299Z,6.83
2023-03-19T15:18:14.841Z,6.43
2023-03-19T18:35:46.514Z,23.80
2023-03-19T18:41:31.436Z,23.07
2023-03-19T18:44:12.447Z,23.97
2023-03-19T18:46:45.575Z,22.40
2023-03-19T18:49:25.798Z,22.20
2023-03-19T18:52:03.056Z,22.53
2023-03-19T18:54:37.279Z,22.40
2023-03-19T18:57:14.942Z,23.00
2023-03-19T18:59:47.914Z,23.77
2023-03-19T19:02:31.917Z,24.20
2023-03-19T19:05:07.419Z,23.73
2023-03-19T19:07:40.181Z,24.40
2023-03-19T19:10:16.061Z,24.10
2023-03-19T19:12:52.598Z,25.67
2023-03-19T19:15:30.067Z,25.93
2023-03-19T19:18:07.540Z,25.83
2023-03-19T19:20:40.991Z,24.43
2023-03-19T19:23:14.290Z,24.83
2023-03-19T19:25:55.300Z,24.67
2023-03-19T19:28:33.092Z,24.47
2023-03-19T19:31:06.585Z,24.00
2023-03-19T19:33:39.793Z,25.33
2023-03-19T19:36:13.472Z,27.47
2023-03-19T19:38:46.449Z,26.33
2023-03-19T19:41:23.273Z,26.13
2023-03-19T19:44:01.773Z,25.83
2023-03-19T19:46:35.476Z,26.70
2023-03-19T19:49:12.006Z,29.77
2023-03-19T19:51:45.967Z,30.17
2023-03-19T19:54:18.847Z,31.47
2023-03-19T19:56:53.668Z,31.07
2023-03-19T19:59:28.228Z,31.80
2023-03-19T20:02:02.627Z,31.60
2023-03-19T20:04:35.684Z,33.63
2023-03-19T20:07:08.434Z,33.30
2023-03-19T20:09:42.072Z,30.97
2023-03-19T20:12:22.371Z,31.93
2023-03-19T20:14:56.033Z,32.23
2023-03-19T20:17:29.593Z,31.73
2023-03-19T20:20:02.374Z,32.07
2023-03-19T20:22:35.539Z,32.83
2023-03-19T20:25:10.340Z,30.07
2023-03-19T20:27:44.094Z,30.50
2023-03-19T20:30:30.680Z,33.37
2023-03-19T20:33:07.898Z,30.10
2023-03-19T20:35:43.153Z,30.90
2023-03-19T20:38:18.874Z,29.83
2023-03-19T20:40:55.701Z,30.87
2023-03-19T20:43:31.662Z,29.30
2023-03-19T20:46:08.188Z,31.33
2023-03-19T20:48:41.657Z,30.03
2023-03-19T20:51:20.142Z,31.50
2023-03-19T20:53:53.603Z,31.20
2023-03-19T20:56:27.388Z,30.03
2023-03-19T20:59:03.985Z,30.67
2023-03-19T21:01:37.511Z,29.33
2023-03-19T21:04:19.406Z,32.30
2023-03-19T21:06:54.148Z,32.33
2023-03-19T21:09:28.711Z,30.67
2023-03-19T21:12:01.890Z,33.20
2023-03-19T21:14:35.648Z,33.37
2023-03-19T21:17:08.857Z,33.13
2023-03-19T21:19:43.017Z,32.37
2023-03-19T21:22:22.921Z,32.63
2023-03-19T21:25:01.983Z,32.53
2023-03-19T21:27:37.384Z,31.67
2023-03-19T21:30:17.867Z,31.93
2023-03-19T21:32:53.367Z,32.53
2023-03-19T21:35:28.030Z,32.67
2023-03-19T21:38:01.056Z,32.70
2023-03-19T21:40:34.102Z,33.65
2023-03-19T21:43:16.639Z,32.80
2023-03-19T21:45:54.872Z,34.33
2023-03-19T21:48:33.078Z,33.27
2023-03-19T21:51:08.148Z,32.90
2023-03-19T21:53:41.140Z,33.50
2023-03-19T21:56:23.271Z,32.67
2023-03-19T21:58:57.234Z,32.80
2023-03-19T22:01:30.220Z,32.77
2023-03-19T22:04:03.219Z,33.13
2023-03-19T22:06:36.979Z,33.30
2023-03-19T22:09:09.890Z,32.00
2023-03-19T22:11:46.503Z,31.37
2023-03-19T22:14:27.039Z,33.60
2023-03-19T22:17:01.428Z,35.43
2023-03-19T22:19:34.253Z,35.50
2023-03-19T22:22:07.583Z,35.37
2023-03-19T22:24:40.717Z,34.87
2023-03-19T22:27:19.062Z,35.33
2023-03-19T22:29:52.058Z,34.93
2023-03-19T22:32:25.150Z,36.43
2023-03-19T22:34:58.118Z,36.30
2023-03-19T22:37:32.433Z,35.57
2023-03-19T22:40:05.452Z,33.80
2023-03-19T22:42:42.857Z,35.93
2023-03-19T22:45:31.236Z,35.60
2023-03-19T22:48:04.287Z,36.17
2023-03-19T22:50:37.893Z,37.43
2023-03-19T22:53:23.278Z,35.33
2023-03-19T22:55:57.688Z,37.73
2023-03-19T22:58:31.541Z,37.33
2023-03-19T23:01:04.580Z,36.47
2023-03-19T23:03:37.507Z,36.30
2023-03-19T23:06:29.282Z,37.73
2023-03-19T23:09:02.982Z,36.70
2023-03-19T23:11:39.624Z,37.23
2023-03-19T23:14:26.084Z,37.00
2023-03-19T23:17:03.514Z,36.15
2023-03-19T23:19:36.950Z,35.40
2023-03-19T23:22:15.309Z,36.30
2023-03-19T23:24:47.448Z,34.73
2023-03-19T23:27:23.533Z,36.13
2023-03-19T23:29:56.261Z,35.10
2023-03-19T23:32:29.180Z,35.10
2023-03-19T23:35:02.229Z,36.10
2023-03-19T23:37:36.984Z,36.27
2023-03-19T23:40:12.421Z,36.70
2023-03-19T23:42:52.283Z,37.25
2023-03-19T23:45:35.593Z,37.23
2023-03-19T23:48:15.255Z,35.57
2023-03-19T23:50:48.859Z,36.30
2023-03-19T23:53:24.524Z,37.07
2023-03-19T23:56:00.141Z,36.80
2023-03-19T23:58:40.150Z,39.43
